Time;durP1;ratioP1;P1;durP2;ratioP2;P2;SDS_P1;SDS_P2;PMS_P1;PMS_P2;Temp;Humidity;BMP_temperature;BMP_pressure;BME280_temperature;BME280_humidity;BME280_pressure;Samples;Min_cycle;Max_cycle;Signal;HPM_P1;HPM_P2
2022/11/08 00:02:45;;;;;;;11.90;2.30;;;12.80;99.90;;;;;;5064782;28;20684;-54
2022/11/08 00:16:14;;;;;;;3.83;2.10;;;12.70;99.90;;;;;;5067646;28;20686;-54
2022/11/08 00:18:41;;;;;;;7.80;2.23;;;12.80;99.90;;;;;;5067654;28;20224;-57
2022/11/08 00:21:08;;;;;;;7.07;1.77;;;12.70;99.90;;;;;;5067037;28;20236;-54
2022/11/08 00:23:34;;;;;;;7.30;2.00;;;12.70;99.90;;;;;;5067306;28;20741;-54
2022/11/08 00:26:01;;;;;;;5.63;1.90;;;12.70;99.90;;;;;;5064822;28;20205;-54
2022/11/08 00:28:28;;;;;;;6.43;2.00;;;12.60;99.90;;;;;;5063712;28;20301;-54
2022/11/08 00:30:55;;;;;;;3.47;1.83;;;12.70;99.90;;;;;;5057288;28;20200;-54
2022/11/08 00:33:21;;;;;;;4.10;2.03;;;12.70;99.90;;;;;;5059488;28;20205;-54
2022/11/08 00:35:48;;;;;;;7.53;1.90;;;12.70;99.90;;;;;;5058786;28;20210;-55
2022/11/08 00:38:15;;;;;;;8.67;2.03;;;12.70;99.90;;;;;;5061504;28;20704;-54
2022/11/08 00:40:42;;;;;;;7.67;2.00;;;12.60;99.90;;;;;;5062769;28;20221;-54
2022/11/08 00:43:09;;;;;;;6.33;1.77;;;12.50;99.90;;;;;;5065388;28;20704;-54
2022/11/08 00:45:36;;;;;;;10.30;1.97;;;12.60;99.90;;;;;;5065349;28;20211;-55
2022/11/08 00:48:03;;;;;;;7.83;2.67;;;12.60;99.90;;;;;;5068094;28;20201;-55
2022/11/08 00:50:30;;;;;;;5.53;2.13;;;12.60;99.90;;;;;;5065155;28;20263;-54
2022/11/08 00:52:56;;;;;;;4.93;1.80;;;12.60;99.90;;;;;;5062613;28;20221;-53
2022/11/08 00:55:23;;;;;;;4.47;2.17;;;12.60;99.90;;;;;;5059660;28;20838;-55
2022/11/08 00:57:50;;;;;;;13.20;4.33;;;12.60;99.90;;;;;;5066628;28;20213;-54
2022/11/08 01:00:26;;;;;;;5.80;1.97;;;12.50;99.90;;;;;;5064193;28;20580;-54
2022/11/08 01:03:17;;;;;;;4.87;2.03;;;12.50;99.90;;;;;;5067136;28;20670;-54
2022/11/08 01:05:40;;;;;;;3.83;1.80;;;12.50;99.90;;;;;;5065016;28;20696;-54
2022/11/08 01:08:08;;;;;;;4.87;2.10;;;12.40;99.90;;;;;;5064805;28;20324;-54
2022/11/08 01:10:35;;;;;;;8.87;2.07;;;12.40;99.90;;;;;;5056094;28;20237;-55
2022/11/08 01:13:02;;;;;;;3.83;1.87;;;12.40;99.90;;;;;;5065297;28;20189;-55
2022/11/08 01:15:34;;;;;;;7.73;2.47;;;12.50;99.90;;;;;;5061272;28;20201;-54
2022/11/08 01:18:03;;;;;;;7.17;2.27;;;12.50;99.90;;;;;;5063182;28;20625;-54
2022/11/08 01:20:30;;;;;;;7.20;1.90;;;12.50;99.90;;;;;;5061583;28;20201;-55
2022/11/08 01:22:57;;;;;;;7.70;2.13;;;12.40;99.90;;;;;;5062962;28;20279;-54
2022/11/08 01:25:24;;;;;;;5.83;1.90;;;12.50;99.90;;;;;;5062971;28;20215;-54
2022/11/08 01:27:50;;;;;;;4.73;1.77;;;12.50;99.90;;;;;;5064752;28;20750;-55
2022/11/08 01:30:17;;;;;;;5.07;1.67;;;12.40;99.90;;;;;;5061089;28;20193;-54
2022/11/08 01:32:44;;;;;;;7.40;1.70;;;12.40;99.90;;;;;;5062262;28;20192;-56
2022/11/08 01:35:13;;;;;;;4.97;1.40;;;12.40;99.90;;;;;;5058267;28;20191;-55
2022/11/08 01:37:40;;;;;;;6.13;1.67;;;12.40;99.90;;;;;;5062736;28;20201;-55
2022/11/08 01:40:08;;;;;;;8.77;1.80;;;12.40;99.90;;;;;;5061539;28;20641;-58
2022/11/08 01:42:34;;;;;;;5.93;1.73;;;12.40;99.90;;;;;;5060296;28;20735;-53
2022/11/08 01:45:05;;;;;;;5.83;1.67;;;12.40;99.90;;;;;;5058722;28;20680;-54
2022/11/08 01:47:32;;;;;;;7.20;1.83;;;12.40;99.90;;;;;;5058489;28;20189;-55
2022/11/08 01:50:07;;;;;;;5.03;1.57;;;12.30;99.90;;;;;;5060274;28;20202;-54
2022/11/08 01:52:47;;;;;;;7.53;1.80;;;12.30;99.90;;;;;;5067940;28;20329;-55
2022/11/08 01:55:35;;;;;;;8.80;2.43;;;12.30;99.90;;;;;;5056340;28;20283;-55
2022/11/08 01:58:10;;;;;;;4.47;1.73;;;12.20;99.90;;;;;;5066829;28;20657;-54
2022/11/08 02:00:38;;;;;;;4.57;1.60;;;12.20;99.90;;;;;;5059686;28;20211;-54
2022/11/08 02:03:09;;;;;;;5.63;1.77;;;12.30;99.90;;;;;;5066677;28;20204;-55
2022/11/08 02:05:36;;;;;;;6.03;1.40;;;12.30;99.90;;;;;;5061641;28;20213;-55
2022/11/08 02:08:19;;;;;;;3.87;1.57;;;12.20;99.90;;;;;;5064341;28;20193;-55
2022/11/08 02:10:50;;;;;;;5.90;1.80;;;12.20;99.90;;;;;;5061227;28;20218;-54
2022/11/08 02:13:22;;;;;;;2.50;1.30;;;12.20;99.90;;;;;;5063492;28;20630;-55
2022/11/08 02:15:49;;;;;;;3.77;2.20;;;12.20;99.90;;;;;;5062755;28;20208;-55
2022/11/08 02:18:20;;;;;;;5.57;1.63;;;12.20;99.90;;;;;;5058059;28;20319;-53
2022/11/08 02:20:58;;;;;;;3.47;1.40;;;12.20;99.90;;;;;;5064664;28;20203;-54
2022/11/08 02:23:39;;;;;;;2.40;1.63;;;12.20;99.90;;;;;;5066455;28;20214;-55
2022/11/08 02:26:06;;;;;;;8.67;2.07;;;12.10;99.90;;;;;;5066935;28;20215;-54
2022/11/08 02:28:39;;;;;;;5.10;1.80;;;12.10;99.90;;;;;;5063135;28;21133;-55
2022/11/08 02:31:11;;;;;;;4.30;2.03;;;12.10;99.90;;;;;;5067076;28;20196;-55
2022/11/08 02:33:38;;;;;;;3.33;1.77;;;12.20;99.90;;;;;;5061074;28;20208;-54
2022/11/08 02:36:07;;;;;;;3.73;1.80;;;12.10;99.90;;;;;;5065273;28;20200;-54
2022/11/08 02:38:39;;;;;;;5.90;2.00;;;12.10;99.90;;;;;;5063785;28;20647;-55
2022/11/08 02:41:06;;;;;;;5.03;2.30;;;12.10;99.90;;;;;;5062462;28;20196;-55
2022/11/08 02:43:33;;;;;;;4.27;1.90;;;12.10;99.90;;;;;;5065671;28;20196;-53
2022/11/08 02:45:59;;;;;;;3.23;1.80;;;12.10;99.90;;;;;;5060693;28;20296;-56
2022/11/08 02:48:26;;;;;;;9.13;2.23;;;12.00;99.90;;;;;;5064781;28;20309;-55
2022/11/08 02:50:53;;;;;;;5.80;2.37;;;12.10;99.90;;;;;;5063157;28;20203;-55
2022/11/08 02:53:20;;;;;;;9.03;2.07;;;12.10;99.90;;;;;;5064253;28;20713;-55
2022/11/08 02:55:47;;;;;;;4.40;2.23;;;12.00;99.90;;;;;;5063602;28;20287;-55
2022/11/08 02:58:14;;;;;;;6.50;1.87;;;12.00;99.90;;;;;;5063961;28;20207;-54
2022/11/08 03:00:42;;;;;;;6.00;2.13;;;12.00;99.90;;;;;;5060036;28;20196;-54
2022/11/08 03:03:08;;;;;;;3.67;1.70;;;12.00;99.90;;;;;;5063517;28;20239;-58
2022/11/08 03:05:35;;;;;;;6.53;2.17;;;12.00;99.90;;;;;;5062534;28;20212;-55
2022/11/08 03:08:02;;;;;;;4.50;1.60;;;12.00;99.90;;;;;;5066805;28;20196;-55
2022/11/08 03:10:29;;;;;;;7.33;2.33;;;12.00;99.90;;;;;;5052945;28;20310;-54
2022/11/08 03:13:01;;;;;;;6.63;1.70;;;12.00;99.90;;;;;;5065266;28;20204;-55
2022/11/08 03:15:28;;;;;;;3.67;1.93;;;12.00;99.90;;;;;;5058171;28;20204;-54
2022/11/08 03:17:56;;;;;;;5.03;1.60;;;12.00;99.90;;;;;;5065538;28;20232;-55
2022/11/08 03:20:24;;;;;;;5.13;1.93;;;12.00;99.90;;;;;;5062584;28;20193;-55
2022/11/08 03:23:00;;;;;;;2.33;1.30;;;12.00;99.90;;;;;;5064304;28;20303;-54
2022/11/08 03:25:27;;;;;;;3.13;1.60;;;11.90;99.90;;;;;;5064372;28;20210;-54
2022/11/08 03:27:54;;;;;;;5.57;1.73;;;12.00;99.90;;;;;;5064482;28;20245;-55
2022/11/08 03:30:21;;;;;;;6.87;1.60;;;11.90;99.90;;;;;;5059830;28;22062;-55
2022/11/08 03:32:51;;;;;;;4.73;1.20;;;12.00;99.90;;;;;;5066728;28;20715;-54
2022/11/08 03:35:19;;;;;;;4.50;1.50;;;12.10;99.90;;;;;;5061872;28;20232;-55
2022/11/08 03:37:50;;;;;;;2.07;1.37;;;12.10;99.90;;;;;;5066303;28;20293;-55
2022/11/08 03:40:17;;;;;;;3.47;1.53;;;12.10;99.90;;;;;;5056623;28;20290;-55
2022/11/08 03:42:44;;;;;;;4.07;1.50;;;12.10;99.90;;;;;;5061332;28;20216;-54
2022/11/08 03:45:12;;;;;;;4.37;1.60;;;12.10;99.90;;;;;;5062590;28;20212;-55
2022/11/08 03:47:41;;;;;;;3.07;1.47;;;12.10;99.90;;;;;;5066030;28;20253;-55
2022/11/08 03:50:08;;;;;;;4.70;1.70;;;12.10;99.90;;;;;;5067192;28;20696;-54
2022/11/08 03:52:48;;;;;;;5.37;1.43;;;12.10;99.90;;;;;;5065548;28;20542;-55
2022/11/08 03:55:17;;;;;;;3.87;1.43;;;12.10;99.90;;;;;;5063756;28;20223;-54
2022/11/08 03:57:46;;;;;;;4.13;1.63;;;12.10;99.90;;;;;;5056357;28;20327;-55
2022/11/08 04:00:15;;;;;;;2.60;1.60;;;12.10;99.90;;;;;;5067654;28;20279;-59
2022/11/08 04:02:42;;;;;;;5.67;1.30;;;12.10;99.90;;;;;;5070957;28;20654;-55
2022/11/08 04:05:11;;;;;;;4.63;1.60;;;12.00;99.90;;;;;;5067508;28;20718;-54
2022/11/08 04:07:38;;;;;;;5.07;1.83;;;12.00;99.90;;;;;;5067672;28;20233;-54
2022/11/08 04:10:06;;;;;;;3.00;1.63;;;12.00;99.90;;;;;;5069958;28;20705;-55
2022/11/08 04:15:22;;;;;;;6.97;1.50;;;12.00;99.90;;;;;;5065853;28;20648;-55
2022/11/08 04:23:27;;;;;;;2.07;1.30;;;12.00;99.90;;;;;;5064977;28;20299;-54
2022/11/08 04:25:59;;;;;;;3.13;1.50;;;12.00;99.90;;;;;;5064708;28;20226;-54
2022/11/08 04:28:30;;;;;;;3.77;1.37;;;12.00;99.90;;;;;;5066208;28;20548;-54
2022/11/08 04:30:59;;;;;;;5.00;1.23;;;12.00;99.90;;;;;;5067183;28;20649;-54
2022/11/08 04:33:26;;;;;;;4.60;1.20;;;12.00;99.90;;;;;;5065997;28;20192;-54
2022/11/08 04:35:53;;;;;;;2.80;1.40;;;12.00;99.90;;;;;;5062454;28;20201;-55
2022/11/08 04:38:21;;;;;;;4.00;1.60;;;12.00;99.90;;;;;;5063071;28;20215;-54
2022/11/08 04:40:47;;;;;;;6.67;3.43;;;11.90;99.90;;;;;;5065329;28;20329;-54
2022/11/08 04:43:14;;;;;;;6.20;2.10;;;11.90;99.90;;;;;;5069200;28;20200;-54
2022/11/08 04:45:41;;;;;;;6.23;2.00;;;12.00;99.90;;;;;;5061020;28;20240;-54
2022/11/08 04:48:09;;;;;;;5.10;2.07;;;12.00;99.90;;;;;;5064729;28;20225;-54
2022/11/08 04:50:36;;;;;;;6.17;1.70;;;12.00;99.90;;;;;;5062820;28;20231;-55
2022/11/08 04:53:03;;;;;;;5.27;1.87;;;12.00;99.90;;;;;;5067319;28;20236;-55
2022/11/08 04:55:29;;;;;;;4.87;1.73;;;12.00;99.90;;;;;;5058946;28;20204;-54
2022/11/08 04:57:57;;;;;;;3.37;1.60;;;12.00;99.90;;;;;;5065835;28;20200;-54
2022/11/08 05:00:25;;;;;;;9.87;1.80;;;12.00;99.90;;;;;;5064236;28;20256;-57
2022/11/08 05:02:52;;;;;;;3.80;1.40;;;12.00;99.90;;;;;;5067489;28;20609;-54
2022/11/08 05:05:19;;;;;;;2.47;1.17;;;12.00;99.90;;;;;;5062708;28;20656;-54
2022/11/08 05:07:45;;;;;;;4.10;1.40;;;12.00;99.90;;;;;;5061381;28;20229;-55
2022/11/08 05:10:12;;;;;;;5.60;1.40;;;12.00;99.90;;;;;;5063920;28;20227;-54
2022/11/08 05:12:39;;;;;;;2.73;1.47;;;11.90;99.90;;;;;;5068216;28;20624;-55
2022/11/08 05:15:07;;;;;;;4.23;1.60;;;11.90;99.90;;;;;;5063471;28;20194;-54
2022/11/08 05:17:34;;;;;;;2.80;1.43;;;11.90;99.90;;;;;;5060307;28;20254;-59
2022/11/08 05:25:32;;;;;;;6.80;1.50;;;11.90;99.90;;;;;;5066064;28;20311;-54
2022/11/08 05:27:59;;;;;;;3.23;1.50;;;11.90;99.90;;;;;;5065251;28;20292;-54
2022/11/08 05:30:25;;;;;;;6.27;1.53;;;11.80;99.90;;;;;;5063942;28;20206;-55
2022/11/08 05:32:52;;;;;;;7.50;1.97;;;11.80;99.90;;;;;;5063596;28;20683;-54
2022/11/08 05:35:21;;;;;;;2.57;1.13;;;11.90;99.90;;;;;;5061878;28;20193;-55
2022/11/08 05:37:48;;;;;;;3.23;1.50;;;11.90;99.90;;;;;;5066681;28;20591;-55
2022/11/08 05:40:15;;;;;;;6.47;1.57;;;11.90;99.90;;;;;;5065882;28;20203;-55
2022/11/08 05:42:42;;;;;;;5.77;1.43;;;11.90;99.90;;;;;;5066929;28;20685;-54
2022/11/08 05:45:09;;;;;;;3.50;1.30;;;11.90;99.90;;;;;;5066939;28;20213;-54
2022/11/08 05:47:37;;;;;;;2.67;1.57;;;11.90;99.90;;;;;;5067992;28;20724;-55
2022/11/08 05:50:04;;;;;;;5.03;1.70;;;11.80;99.90;;;;;;5060841;28;20391;-55
2022/11/08 05:52:31;;;;;;;5.67;1.60;;;11.80;99.90;;;;;;5062495;28;20642;-54
2022/11/08 05:54:59;;;;;;;3.60;1.27;;;11.90;99.90;;;;;;5066370;28;20196;-54
2022/11/08 05:57:25;;;;;;;2.83;1.40;;;11.80;99.90;;;;;;5066955;28;20248;-55
2022/11/08 05:59:52;;;;;;;3.13;1.53;;;11.90;99.90;;;;;;5064258;28;20208;-54
2022/11/08 06:02:19;;;;;;;2.83;1.10;;;11.80;99.90;;;;;;5069405;28;20829;-53
2022/11/08 06:04:46;;;;;;;3.37;1.30;;;11.80;99.90;;;;;;5061664;28;20247;-54
2022/11/08 06:07:13;;;;;;;2.73;1.17;;;11.80;99.90;;;;;;5064932;28;20847;-54
2022/11/08 06:09:40;;;;;;;6.93;1.17;;;11.80;99.90;;;;;;5056451;28;20206;-53
2022/11/08 06:12:06;;;;;;;2.60;1.20;;;11.80;99.90;;;;;;5058756;28;20277;-54
2022/11/08 06:14:34;;;;;;;2.80;1.30;;;11.80;99.90;;;;;;5055689;28;20238;-54
2022/11/08 06:17:01;;;;;;;1.73;1.17;;;11.80;99.90;;;;;;5062476;28;20379;-54
2022/11/08 06:19:27;;;;;;;3.03;1.37;;;11.80;99.90;;;;;;5069037;28;20193;-53
2022/11/08 06:21:54;;;;;;;4.53;1.37;;;11.80;99.90;;;;;;5064322;28;20194;-55
2022/11/08 06:24:21;;;;;;;2.50;1.23;;;11.80;99.90;;;;;;5063249;28;20618;-56
2022/11/08 06:26:48;;;;;;;3.37;1.93;;;11.80;99.90;;;;;;5062462;28;20230;-55
2022/11/08 06:29:15;;;;;;;3.40;0.93;;;11.80;99.90;;;;;;5060417;28;20217;-54
2022/11/08 06:31:42;;;;;;;3.13;1.03;;;11.80;99.90;;;;;;5061756;28;20198;-54
2022/11/08 06:34:09;;;;;;;0.90;0.70;;;11.80;99.90;;;;;;5062608;28;20217;-54
2022/11/08 06:36:36;;;;;;;2.90;1.33;;;11.80;99.90;;;;;;5061045;28;20199;-54
2022/11/08 06:39:03;;;;;;;4.67;1.40;;;11.70;99.90;;;;;;5067035;28;20277;-55
2022/11/08 06:41:31;;;;;;;4.23;1.67;;;11.70;99.90;;;;;;5059958;28;20286;-55
2022/11/08 06:43:58;;;;;;;4.13;1.40;;;11.70;99.90;;;;;;5066258;28;20654;-55
2022/11/08 06:46:25;;;;;;;2.90;1.20;;;11.60;99.90;;;;;;5062308;28;20208;-57
2022/11/08 06:48:52;;;;;;;1.90;1.27;;;11.70;99.90;;;;;;5067030;28;20665;-54
2022/11/08 06:51:19;;;;;;;5.70;1.50;;;11.60;99.90;;;;;;5061997;28;20685;-54
2022/11/08 06:53:47;;;;;;;2.50;1.23;;;11.70;99.90;;;;;;5058398;28;20217;-55
2022/11/08 06:56:14;;;;;;;1.67;0.97;;;11.60;99.90;;;;;;5066186;28;20280;-57
2022/11/08 06:58:40;;;;;;;4.17;1.90;;;11.70;99.90;;;;;;5065519;28;20684;-55
2022/11/08 07:01:09;;;;;;;3.57;1.07;;;11.60;99.90;;;;;;5047601;28;20213;-54
2022/11/08 07:03:37;;;;;;;3.40;1.40;;;11.60;99.90;;;;;;5063830;28;20196;-55
2022/11/08 07:06:05;;;;;;;4.20;1.57;;;11.50;99.90;;;;;;5061520;28;20670;-55
2022/11/08 07:08:33;;;;;;;3.17;1.53;;;11.50;99.90;;;;;;5061855;28;20673;-55
2022/11/08 07:11:00;;;;;;;4.37;1.40;;;11.60;99.90;;;;;;5060124;28;20258;-53
2022/11/08 07:13:27;;;;;;;2.40;1.23;;;11.60;99.90;;;;;;5065488;28;20284;-55
2022/11/08 07:15:56;;;;;;;4.53;1.57;;;11.60;99.90;;;;;;5058960;28;20713;-53
2022/11/08 07:18:24;;;;;;;2.93;1.50;;;11.70;99.90;;;;;;5060890;28;20950;-55
2022/11/08 07:20:51;;;;;;;3.90;1.67;;;11.60;99.90;;;;;;5066245;28;20407;-55
2022/11/08 07:23:18;;;;;;;5.60;1.27;;;11.70;99.90;;;;;;5067536;28;20195;-55
2022/11/08 07:25:45;;;;;;;1.90;1.10;;;11.80;99.90;;;;;;5071664;28;20210;-54
2022/11/08 07:28:15;;;;;;;5.73;1.60;;;11.70;99.90;;;;;;5068901;28;20231;-54
2022/11/08 07:30:43;;;;;;;5.53;1.77;;;11.80;99.90;;;;;;5067409;28;20213;-59
2022/11/08 07:33:10;;;;;;;2.13;1.13;;;11.80;99.90;;;;;;5062186;28;20626;-54
2022/11/08 07:35:37;;;;;;;3.00;1.33;;;11.80;99.90;;;;;;5068354;28;20195;-55
2022/11/08 07:38:04;;;;;;;6.23;1.40;;;11.80;99.90;;;;;;5070589;28;20285;-53
2022/11/08 07:40:34;;;;;;;4.53;1.20;;;11.80;99.90;;;;;;5071589;28;20900;-55
2022/11/08 07:43:01;;;;;;;3.30;0.97;;;11.90;99.90;;;;;;5069491;28;20198;-55
2022/11/08 07:45:43;;;;;;;4.13;1.50;;;12.00;99.90;;;;;;5069783;28;20195;-55
2022/11/08 07:48:12;;;;;;;2.60;1.27;;;12.00;99.90;;;;;;5069220;28;20209;-54
2022/11/08 07:50:41;;;;;;;3.77;1.20;;;12.00;99.90;;;;;;5069685;28;20211;-54
2022/11/08 07:53:09;;;;;;;2.93;1.30;;;12.00;99.90;;;;;;5054535;28;20239;-55
2022/11/08 07:55:37;;;;;;;2.13;1.20;;;12.00;99.90;;;;;;5064590;28;21124;-55
2022/11/08 07:58:04;;;;;;;4.20;1.40;;;12.00;99.90;;;;;;5064642;28;20203;-55
2022/11/08 08:00:35;;;;;;;3.60;1.30;;;12.10;99.90;;;;;;5064753;28;20198;-55
2022/11/08 08:03:04;;;;;;;3.43;1.10;;;12.00;99.90;;;;;;5070920;28;20201;-55
2022/11/08 08:05:34;;;;;;;2.60;1.20;;;12.10;99.90;;;;;;5066504;28;20293;-55
2022/11/08 08:08:02;;;;;;;1.80;1.13;;;12.10;99.90;;;;;;5071449;28;20561;-55
2022/11/08 08:10:30;;;;;;;1.30;1.10;;;12.20;99.90;;;;;;5064140;28;20214;-55
2022/11/08 08:12:57;;;;;;;2.73;1.43;;;12.30;99.90;;;;;;5068164;28;20917;-55
2022/11/08 08:15:24;;;;;;;1.67;1.00;;;12.30;99.90;;;;;;5061933;28;20192;-54
2022/11/08 08:17:51;;;;;;;2.30;1.10;;;12.40;99.90;;;;;;5067899;28;20317;-55
2022/11/08 08:20:18;;;;;;;3.37;1.20;;;12.40;99.90;;;;;;5068276;28;20239;-55
2022/11/08 08:22:50;;;;;;;2.93;1.30;;;12.50;99.90;;;;;;5068119;28;20334;-55
2022/11/08 08:25:18;;;;;;;3.53;1.37;;;12.40;99.90;;;;;;5071136;28;20295;-56
2022/11/08 08:27:55;;;;;;;1.23;1.13;;;12.50;99.90;;;;;;5068877;28;20678;-55
2022/11/08 08:30:23;;;;;;;3.87;1.13;;;12.50;99.90;;;;;;5061406;28;20522;-55
2022/11/08 08:32:51;;;;;;;1.10;1.00;;;12.60;99.90;;;;;;5063278;28;20577;-54
2022/11/08 08:35:39;;;;;;;4.77;1.40;;;12.70;99.90;;;;;;5060649;28;20302;-54
2022/11/08 08:38:12;;;;;;;3.50;1.53;;;12.80;99.90;;;;;;4956614;28;10000880;-54
2022/11/08 08:40:39;;;;;;;3.73;2.00;;;12.90;99.90;;;;;;5048252;28;20438;-53
2022/11/08 08:43:06;;;;;;;2.50;1.30;;;12.90;99.90;;;;;;5054002;28;20198;-54
2022/11/08 08:45:34;;;;;;;3.50;2.33;;;13.00;99.90;;;;;;5062096;28;20818;-56
2022/11/08 08:48:01;;;;;;;1.67;0.90;;;13.00;99.90;;;;;;5066772;28;20701;-56
2022/11/08 08:50:30;;;;;;;1.90;1.17;;;13.10;99.90;;;;;;5064158;28;20194;-55
2022/11/08 08:52:59;;;;;;;2.73;1.63;;;13.10;99.90;;;;;;5079072;28;20217;-58
2022/11/08 08:55:26;;;;;;;3.83;1.70;;;13.10;99.90;;;;;;5061249;28;20210;-53
2022/11/08 08:57:53;;;;;;;4.07;1.30;;;13.10;99.90;;;;;;5071925;28;20217;-59
2022/11/08 09:00:21;;;;;;;1.20;0.90;;;13.10;99.90;;;;;;5061107;28;20203;-54
2022/11/08 09:03:09;;;;;;;1.87;1.20;;;13.10;99.90;;;;;;5058865;28;20310;-55
2022/11/08 09:05:36;;;;;;;2.10;1.60;;;13.20;99.90;;;;;;5056539;28;20277;-54
2022/11/08 09:08:03;;;;;;;4.47;1.17;;;13.20;99.90;;;;;;5064882;28;20302;-56
2022/11/08 09:10:30;;;;;;;3.27;1.40;;;13.30;99.90;;;;;;5058477;28;20249;-57
2022/11/08 09:12:57;;;;;;;2.47;1.10;;;13.30;99.90;;;;;;5065947;28;20282;-54
2022/11/08 09:15:24;;;;;;;3.00;1.40;;;13.40;99.90;;;;;;5063673;28;20215;-54
2022/11/08 09:17:53;;;;;;;2.53;1.33;;;13.40;99.90;;;;;;5064954;28;20235;-54
2022/11/08 09:20:20;;;;;;;2.63;1.50;;;13.50;99.90;;;;;;5062684;28;20203;-54
2022/11/08 09:22:47;;;;;;;2.03;1.37;;;13.50;99.90;;;;;;5064678;28;20235;-55
2022/11/08 09:25:13;;;;;;;2.00;1.20;;;13.60;99.90;;;;;;5065437;28;20195;-54
2022/11/08 09:27:40;;;;;;;2.47;1.23;;;13.60;99.90;;;;;;5062156;28;20248;-54
2022/11/08 09:30:08;;;;;;;3.17;1.43;;;13.60;99.90;;;;;;5066280;28;20202;-54
2022/11/08 09:32:35;;;;;;;3.20;1.53;;;13.60;99.90;;;;;;5064920;28;20196;-54
2022/11/08 09:35:22;;;;;;;3.63;1.20;;;13.70;99.90;;;;;;5060573;28;20321;-54
2022/11/08 09:37:51;;;;;;;2.40;1.20;;;13.80;99.90;;;;;;5066883;28;20207;-55
2022/11/08 09:40:30;;;;;;;3.00;1.30;;;13.70;99.90;;;;;;5066615;28;20270;-55
2022/11/08 09:43:17;;;;;;;3.43;1.20;;;13.70;99.90;;;;;;5063893;28;20199;-55
2022/11/08 09:45:46;;;;;;;3.77;1.10;;;13.90;99.90;;;;;;5062520;28;20200;-57
2022/11/08 09:48:23;;;;;;;4.20;1.07;;;14.00;99.90;;;;;;5068206;28;20245;-55
2022/11/08 09:50:53;;;;;;;2.57;1.40;;;14.00;99.90;;;;;;5065449;28;20294;-55
2022/11/08 09:53:44;;;;;;;3.23;1.23;;;14.20;99.90;;;;;;5061276;28;20208;-53
2022/11/08 09:56:20;;;;;;;3.03;1.47;;;14.10;99.90;;;;;;5065182;28;20202;-56
2022/11/08 09:59:00;;;;;;;3.47;1.20;;;14.20;99.90;;;;;;5060480;28;20195;-54
2022/11/08 10:01:33;;;;;;;2.53;1.30;;;14.10;99.90;;;;;;5060576;28;20207;-54
2022/11/08 10:04:30;;;;;;;2.80;1.30;;;14.10;99.90;;;;;;5064463;28;20198;-54
2022/11/08 10:07:14;;;;;;;3.40;1.50;;;14.20;99.90;;;;;;5042475;28;20226;-57
2022/11/08 10:10:20;;;;;;;2.67;1.60;;;14.30;99.90;;;;;;5061608;28;20234;-56
2022/11/08 10:13:18;;;;;;;4.10;1.37;;;14.20;99.90;;;;;;5061456;28;20642;-56
2022/11/08 10:16:12;;;;;;;3.20;1.73;;;14.20;99.90;;;;;;5062604;28;20191;-54
2022/11/08 10:18:54;;;;;;;2.90;1.60;;;14.20;99.90;;;;;;5054671;28;20613;-58
2022/11/08 10:21:55;;;;;;;3.80;1.57;;;14.20;99.90;;;;;;5065552;28;20203;-56
2022/11/08 10:24:42;;;;;;;2.97;1.43;;;14.30;99.90;;;;;;5076183;28;20214;-57
2022/11/08 10:27:17;;;;;;;3.47;1.70;;;14.30;99.90;;;;;;5062832;28;20220;-54
2022/11/08 10:29:45;;;;;;;2.30;1.20;;;14.30;99.90;;;;;;5057168;28;20195;-55
2022/11/08 10:32:18;;;;;;;2.60;1.63;;;14.30;99.90;;;;;;5060349;28;20197;-57
2022/11/08 10:35:04;;;;;;;3.83;1.53;;;14.30;99.90;;;;;;5059746;28;20279;-54
2022/11/08 10:37:32;;;;;;;3.07;1.40;;;14.30;99.90;;;;;;5057681;28;20830;-55
2022/11/08 10:40:21;;;;;;;1.70;1.10;;;14.30;99.90;;;;;;5060402;28;20249;-55
2022/11/08 10:42:59;;;;;;;2.53;1.33;;;14.30;99.90;;;;;;5060796;28;20209;-56
2022/11/08 10:45:32;;;;;;;2.73;1.93;;;14.40;99.90;;;;;;5055501;28;20206;-55
2022/11/08 10:47:59;;;;;;;3.63;1.30;;;14.40;99.90;;;;;;5059079;28;20652;-55
2022/11/08 10:50:50;;;;;;;1.97;1.30;;;14.40;99.90;;;;;;5062785;28;20198;-55
2022/11/08 10:53:28;;;;;;;2.17;1.33;;;14.40;99.90;;;;;;5064837;28;20287;-55
2022/11/08 10:56:00;;;;;;;3.03;1.60;;;14.40;99.90;;;;;;5059084;28;20195;-55
2022/11/08 10:58:38;;;;;;;3.00;1.43;;;14.50;99.90;;;;;;5066819;28;20290;-55
2022/11/08 11:01:14;;;;;;;2.27;1.30;;;14.50;99.90;;;;;;5065404;28;20199;-55
2022/11/08 11:03:43;;;;;;;3.43;2.20;;;14.40;99.90;;;;;;5067298;28;20199;-55
2022/11/08 11:06:31;;;;;;;1.77;1.20;;;14.50;99.90;;;;;;5062387;28;20218;-55
2022/11/08 11:09:16;;;;;;;2.83;1.57;;;14.40;99.90;;;;;;5065853;28;20645;-55
2022/11/08 11:11:44;;;;;;;3.63;1.30;;;14.50;99.90;;;;;;5064125;28;20222;-54
2022/11/08 11:14:20;;;;;;;4.73;1.40;;;14.50;99.90;;;;;;5070110;28;20861;-55
2022/11/08 11:17:01;;;;;;;4.90;1.63;;;14.50;99.90;;;;;;5065921;28;20267;-55
2022/11/08 11:19:29;;;;;;;3.57;1.33;;;14.50;99.90;;;;;;5059081;28;20278;-55
2022/11/08 11:22:04;;;;;;;2.00;1.20;;;14.50;99.90;;;;;;5059306;28;20200;-55
2022/11/08 11:24:34;;;;;;;3.30;1.53;;;14.50;99.90;;;;;;5064932;28;20202;-54
2022/11/08 11:27:06;;;;;;;2.47;1.50;;;14.50;99.90;;;;;;5058728;28;20223;-55
2022/11/08 11:29:37;;;;;;;3.73;1.53;;;14.50;99.90;;;;;;5062107;28;20190;-54
2022/11/08 11:32:33;;;;;;;4.60;1.30;;;14.50;99.90;;;;;;5065603;28;20550;-54
2022/11/08 11:35:06;;;;;;;3.20;1.77;;;14.50;99.90;;;;;;5059616;28;20203;-55
2022/11/08 11:37:37;;;;;;;3.70;1.33;;;14.70;99.90;;;;;;5063104;28;20200;-54
2022/11/08 11:40:11;;;;;;;2.07;1.20;;;15.10;99.90;;;;;;5059997;28;20227;-55
2022/11/08 11:43:05;;;;;;;2.50;1.27;;;15.10;99.90;;;;;;5064394;28;20278;-55
2022/11/08 11:46:01;;;;;;;3.57;1.33;;;15.00;99.90;;;;;;5064554;28;20302;-55
2022/11/08 11:48:30;;;;;;;2.50;1.93;;;15.00;99.90;;;;;;5061935;28;20233;-55
2022/11/08 11:50:57;;;;;;;2.97;1.30;;;15.00;99.90;;;;;;5065906;28;20200;-55
2022/11/08 11:53:28;;;;;;;5.03;1.57;;;15.10;99.90;;;;;;5067240;28;20600;-55
2022/11/08 11:56:13;;;;;;;3.10;1.00;;;15.10;99.90;;;;;;5067186;28;20210;-55
2022/11/08 11:59:14;;;;;;;3.67;1.03;;;15.30;99.90;;;;;;5064462;28;20203;-55
2022/11/08 12:02:02;;;;;;;5.37;1.33;;;15.50;99.90;;;;;;5068035;28;20233;-55
2022/11/08 12:04:40;;;;;;;3.53;1.47;;;15.50;99.90;;;;;;5076039;28;21216;-55
2022/11/08 12:07:24;;;;;;;1.60;1.30;;;15.70;99.90;;;;;;5066261;28;20287;-55
2022/11/08 12:10:06;;;;;;;1.87;1.20;;;15.90;99.90;;;;;;5059731;28;20659;-54
2022/11/08 12:12:54;;;;;;;2.30;1.77;;;16.10;99.90;;;;;;5067829;28;20199;-55
2022/11/08 12:15:48;;;;;;;4.27;1.40;;;15.80;99.90;;;;;;5064853;28;20283;-55
2022/11/08 12:18:49;;;;;;;2.03;1.27;;;15.60;99.90;;;;;;5062718;28;20523;-55
2022/11/08 12:21:55;;;;;;;2.37;1.43;;;15.50;99.90;;;;;;5063979;28;20202;-55
2022/11/08 12:24:27;;;;;;;2.73;1.43;;;15.40;99.90;;;;;;5061439;28;20210;-55
2022/11/08 12:27:08;;;;;;;2.20;1.20;;;15.40;99.90;;;;;;5055704;28;20237;-55
2022/11/08 12:30:02;;;;;;;1.97;1.07;;;15.40;99.90;;;;;;5057816;28;20962;-55
2022/11/08 12:33:03;;;;;;;3.00;1.27;;;15.30;99.90;;;;;;5069061;28;20645;-55
2022/11/08 12:35:47;;;;;;;4.50;1.50;;;15.30;99.90;;;;;;5057688;28;20190;-55
2022/11/08 12:38:38;;;;;;;5.00;1.10;;;15.20;99.90;;;;;;5061779;28;20314;-55
2022/11/08 12:41:26;;;;;;;2.83;1.17;;;15.20;99.90;;;;;;5063613;28;20277;-55
2022/11/08 12:44:22;;;;;;;5.30;1.37;;;15.20;99.90;;;;;;5057988;28;20203;-54
2022/11/08 12:46:48;;;;;;;5.13;1.47;;;15.20;99.90;;;;;;5058820;28;20284;-54
2022/11/08 12:49:45;;;;;;;4.40;1.30;;;15.20;99.90;;;;;;5055760;28;20197;-54
2022/11/08 12:52:27;;;;;;;3.10;1.20;;;15.20;99.90;;;;;;5053472;28;20679;-56
2022/11/08 12:54:59;;;;;;;1.60;1.30;;;15.30;99.90;;;;;;5059307;28;20205;-56
2022/11/08 12:57:27;;;;;;;3.37;1.40;;;15.40;99.90;;;;;;5061991;28;20731;-56
2022/11/08 13:00:04;;;;;;;2.03;1.60;;;15.40;99.90;;;;;;5060196;28;20242;-56
2022/11/08 13:02:36;;;;;;;1.97;1.47;;;15.50;99.90;;;;;;5060065;28;20680;-56
2022/11/08 13:05:18;;;;;;;1.83;1.33;;;15.40;99.90;;;;;;5055933;28;20202;-55
2022/11/08 13:07:56;;;;;;;3.30;1.53;;;15.40;99.90;;;;;;5059388;28;20236;-59
2022/11/08 13:10:36;;;;;;;2.67;1.43;;;15.50;99.90;;;;;;5058281;28;20260;-59
2022/11/08 13:13:22;;;;;;;5.33;1.30;;;15.50;99.90;;;;;;5058157;28;20199;-55
2022/11/08 13:16:08;;;;;;;2.33;1.40;;;15.50;99.90;;;;;;5056395;28;20244;-55
2022/11/08 13:18:52;;;;;;;2.40;1.07;;;15.50;99.90;;;;;;5055109;28;20237;-56
2022/11/08 13:21:24;;;;;;;4.87;1.27;;;15.50;99.90;;;;;;5057270;28;20197;-56
2022/11/08 13:23:52;;;;;;;4.80;1.43;;;15.50;99.90;;;;;;5060037;28;20298;-54
2022/11/08 13:26:25;;;;;;;1.77;1.20;;;15.50;99.90;;;;;;5058189;28;20194;-55
2022/11/08 13:28:52;;;;;;;2.10;1.07;;;15.60;99.90;;;;;;5061171;28;20848;-56
2022/11/08 13:31:19;;;;;;;2.30;1.20;;;15.60;99.90;;;;;;5058414;28;20532;-55
2022/11/08 13:34:35;;;;;;;1.73;1.27;;;15.70;99.90;;;;;;5054736;28;20202;-55
2022/11/08 13:37:31;;;;;;;8.73;1.20;;;15.60;99.90;;;;;;4981032;28;20206;-54